createdAt,value
2017-12-11T00:00:50.793Z,57.70
2017-12-11T00:03:18.312Z,57.70
2017-12-11T00:05:45.875Z,57.60
2017-12-11T00:08:13.392Z,57.70
2017-12-11T00:10:40.970Z,57.80
2017-12-11T00:13:09.667Z,57.70
2017-12-11T00:15:37.178Z,57.70
2017-12-11T00:18:04.796Z,57.80
2017-12-11T00:20:32.337Z,57.90
2017-12-11T00:22:59.855Z,57.70
2017-12-11T00:25:27.362Z,57.80
2017-12-11T00:27:54.915Z,57.80
2017-12-11T00:30:22.447Z,57.70
2017-12-11T00:32:50.757Z,57.60
2017-12-11T00:35:18.278Z,57.60
2017-12-11T00:37:46.553Z,58.10
2017-12-11T00:40:14.098Z,58.00
2017-12-11T00:42:41.968Z,58.00
2017-12-11T00:45:09.508Z,57.90
2017-12-11T00:47:37.815Z,58.30
2017-12-11T00:50:05.403Z,58.10
2017-12-11T00:52:32.944Z,58.30
2017-12-11T00:55:01.230Z,58.30
2017-12-11T00:57:28.747Z,58.20
2017-12-11T00:59:56.291Z,58.20
2017-12-11T01:02:23.812Z,58.20
2017-12-11T01:04:51.363Z,58.10
2017-12-11T01:07:18.880Z,58.00
2017-12-11T01:09:46.439Z,58.00
2017-12-11T01:12:13.947Z,58.10
2017-12-11T01:14:41.487Z,58.30
2017-12-11T01:17:08.999Z,58.80
2017-12-11T01:19:36.546Z,58.90
2017-12-11T01:22:04.481Z,59.10
2017-12-11T01:24:32.025Z,58.60
2017-12-11T01:26:59.531Z,58.90
2017-12-11T01:29:27.088Z,58.90
2017-12-11T01:31:54.596Z,59.00
2017-12-11T01:34:22.196Z,59.00
2017-12-11T01:36:49.745Z,59.40
2017-12-11T01:39:17.259Z,59.60
2017-12-11T01:41:44.842Z,59.70
2017-12-11T01:44:12.398Z,59.40
2017-12-11T01:46:39.970Z,59.90
2017-12-11T01:49:07.557Z,60.00
2017-12-11T01:51:35.388Z,60.10
2017-12-11T01:54:02.936Z,60.60
2017-12-11T01:56:30.488Z,60.90
2017-12-11T01:58:58.033Z,60.40
2017-12-11T02:01:25.588Z,60.40
2017-12-11T02:03:53.099Z,61.20
2017-12-11T02:06:20.647Z,60.90
2017-12-11T02:08:48.964Z,61.40
2017-12-11T02:11:16.539Z,61.40
2017-12-11T02:13:44.047Z,61.20
2017-12-11T02:16:11.564Z,61.60
2017-12-11T02:18:39.395Z,61.20
2017-12-11T02:21:06.987Z,61.70
2017-12-11T02:23:34.560Z,62.00
2017-12-11T02:26:02.121Z,62.00
2017-12-11T02:28:29.632Z,61.50
2017-12-11T02:30:57.169Z,62.00
2017-12-11T02:33:25.177Z,62.10
2017-12-11T02:35:52.691Z,62.10
2017-12-11T02:38:20.607Z,62.00
2017-12-11T02:40:48.128Z,62.60
2017-12-11T02:43:16.491Z,62.80
2017-12-11T02:45:44.110Z,62.80
2017-12-11T02:48:11.666Z,62.70
2017-12-11T02:50:39.178Z,62.50
2017-12-11T02:53:07.459Z,63.10
2017-12-11T02:55:35.031Z,63.00
2017-12-11T02:58:03.314Z,62.50
2017-12-11T03:00:30.884Z,62.50
2017-12-11T03:02:59.249Z,62.50
2017-12-11T03:05:27.569Z,62.50
2017-12-11T03:07:55.128Z,62.40
2017-12-11T03:10:22.651Z,62.80
2017-12-11T03:12:50.181Z,62.80
2017-12-11T03:15:17.727Z,62.80
2017-12-11T03:17:45.232Z,63.00
2017-12-11T03:20:12.756Z,62.80
2017-12-11T03:22:40.293Z,62.90
2017-12-11T03:25:07.812Z,62.90
2017-12-11T03:27:35.365Z,63.40
2017-12-11T03:30:02.877Z,62.80
2017-12-11T03:32:30.389Z,62.80
2017-12-11T03:34:57.936Z,62.80
2017-12-11T03:37:25.451Z,62.80
2017-12-11T03:39:53.786Z,62.10
2017-12-11T03:42:21.297Z,62.10
2017-12-11T03:44:48.842Z,62.30
2017-12-11T03:47:16.400Z,62.60
2017-12-11T03:49:43.947Z,62.40
2017-12-11T03:52:11.445Z,63.20
2017-12-11T03:54:39.017Z,63.70
2017-12-11T03:57:06.568Z,62.90
2017-12-11T03:59:34.108Z,63.40
2017-12-11T04:02:01.688Z,63.20
2017-12-11T04:04:29.188Z,63.90
2017-12-11T04:06:56.939Z,63.90
2017-12-11T04:09:24.441Z,63.90
2017-12-11T04:11:52.187Z,63.50
2017-12-11T04:14:19.734Z,63.10
2017-12-11T04:16:47.280Z,63.60
2017-12-11T04:19:14.783Z,63.10
2017-12-11T04:21:42.359Z,63.30
2017-12-11T04:24:09.888Z,63.30
2017-12-11T04:26:37.429Z,63.10
2017-12-11T04:29:04.940Z,64.00
2017-12-11T04:31:32.516Z,64.00
2017-12-11T04:34:00.058Z,63.50
2017-12-11T04:36:27.614Z,64.00
2017-12-11T04:38:55.165Z,63.80
2017-12-11T04:41:22.677Z,64.90
2017-12-11T04:43:50.220Z,64.60
2017-12-11T04:46:18.491Z,65.40
2017-12-11T04:48:46.036Z,65.30
2017-12-11T04:51:13.591Z,65.70
2017-12-11T04:53:41.102Z,66.80
2017-12-11T04:56:08.641Z,65.60
2017-12-11T04:58:36.166Z,66.00
2017-12-11T05:01:03.715Z,66.10
2017-12-11T05:03:31.263Z,66.70
2017-12-11T05:05:58.768Z,66.80
2017-12-11T05:08:26.317Z,66.70
2017-12-11T05:10:54.640Z,68.30
2017-12-11T05:13:22.163Z,67.20
2017-12-11T05:15:50.482Z,67.90
2017-12-11T05:18:18.035Z,67.90
2017-12-11T05:20:45.580Z,68.00
2017-12-11T05:23:13.450Z,68.00
2017-12-11T05:25:41.000Z,68.50
2017-12-11T05:28:08.549Z,68.50
2017-12-11T05:30:36.072Z,68.80
2017-12-11T05:33:03.624Z,69.10
2017-12-11T05:35:31.169Z,69.10
2017-12-11T05:37:59.488Z,70.00
2017-12-11T05:40:27.808Z,69.30
2017-12-11T05:42:55.353Z,68.60
2017-12-11T05:45:22.892Z,68.90
2017-12-11T05:47:50.494Z,69.30
2017-12-11T05:50:18.069Z,69.10
2017-12-11T05:52:45.622Z,69.10
2017-12-11T05:55:13.248Z,69.70
2017-12-11T05:57:41.530Z,69.70
2017-12-11T06:00:09.063Z,69.70
2017-12-11T06:02:37.332Z,69.30
2017-12-11T06:05:04.885Z,69.30
2017-12-11T06:07:32.399Z,69.20
2017-12-11T06:10:00.920Z,69.10
2017-12-11T06:12:28.461Z,68.90
2017-12-11T06:14:55.968Z,69.30
2017-12-11T06:17:24.277Z,69.30
2017-12-11T06:19:51.807Z,69.20
2017-12-11T06:22:20.125Z,69.00
2017-12-11T06:24:47.623Z,69.70
2017-12-11T06:27:15.168Z,68.80
2017-12-11T06:29:42.672Z,69.00
2017-12-11T06:32:10.234Z,68.70
2017-12-11T06:34:37.740Z,68.60
2017-12-11T06:42:30.652Z,68.80
2017-12-11T06:44:58.193Z,69.70
2017-12-11T06:47:25.701Z,70.00
2017-12-11T06:49:53.252Z,70.20
2017-12-11T06:52:21.174Z,70.10
2017-12-11T06:54:48.688Z,69.40
2017-12-11T06:57:16.234Z,69.40
2017-12-11T06:59:44.511Z,69.50
2017-12-11T07:02:12.053Z,69.50
2017-12-11T07:04:40.737Z,70.60
2017-12-11T07:07:09.104Z,70.10
2017-12-11T07:09:37.425Z,70.80
2017-12-11T07:12:04.944Z,70.00
2017-12-11T07:14:32.512Z,69.90
2017-12-11T07:17:00.854Z,69.90
2017-12-11T07:19:28.441Z,69.90
2017-12-11T07:21:56.256Z,70.00
2017-12-11T07:24:23.790Z,70.10
2017-12-11T07:32:25.586Z,70.30
2017-12-11T07:34:53.099Z,70.80
2017-12-11T07:37:20.892Z,70.70
2017-12-11T07:39:49.583Z,70.80
2017-12-11T07:42:17.141Z,70.40
2017-12-11T07:44:45.612Z,70.30
2017-12-11T07:47:13.182Z,70.60
2017-12-11T07:49:40.796Z,70.30
2017-12-11T08:11:51.987Z,71.20
2017-12-11T08:14:19.528Z,71.10
2017-12-11T08:16:47.862Z,71.20
2017-12-11T08:19:15.407Z,71.20
2017-12-11T08:21:43.027Z,71.60
2017-12-11T08:24:10.573Z,71.50
2017-12-11T08:26:38.386Z,71.80
2017-12-11T08:29:05.973Z,71.70
2017-12-11T08:31:33.885Z,71.90
2017-12-11T08:34:01.514Z,72.10
2017-12-11T08:36:30.315Z,72.20
2017-12-11T08:38:57.915Z,72.40
2017-12-11T08:41:25.462Z,72.30
2017-12-11T08:43:53.019Z,72.00
2017-12-11T08:46:20.573Z,71.90
2017-12-11T08:48:48.141Z,71.90
2017-12-11T08:51:15.717Z,72.20
2017-12-11T08:53:43.273Z,71.70
2017-12-11T08:56:10.848Z,71.60
2017-12-11T08:58:38.369Z,71.40
2017-12-11T09:01:06.660Z,71.40
2017-12-11T09:03:34.235Z,71.40
2017-12-11T09:06:01.821Z,71.70
2017-12-11T09:08:29.341Z,71.90
2017-12-11T09:10:56.928Z,72.10
2017-12-11T09:13:24.448Z,71.40
2017-12-11T09:15:52.030Z,71.40
2017-12-11T09:18:19.578Z,71.50
2017-12-11T09:20:47.448Z,71.50
2017-12-11T09:23:15.032Z,71.80
2017-12-11T09:25:42.585Z,71.60
2017-12-11T09:28:10.117Z,71.20
2017-12-11T09:30:37.744Z,71.30
2017-12-11T09:33:05.314Z,71.20
2017-12-11T09:35:32.837Z,71.30
2017-12-11T09:38:00.390Z,71.20
2017-12-11T09:40:27.926Z,70.70
2017-12-11T09:42:55.504Z,70.50
2017-12-11T09:45:23.145Z,70.50
2017-12-11T09:47:50.871Z,70.50
2017-12-11T09:50:18.443Z,70.10
2017-12-11T09:52:45.969Z,71.40
2017-12-11T09:55:13.738Z,71.00
2017-12-11T09:57:41.352Z,70.90
2017-12-11T10:00:08.894Z,71.30
2017-12-11T10:02:36.433Z,71.00
2017-12-11T10:05:04.011Z,71.10
2017-12-11T10:07:32.348Z,71.40
2017-12-11T10:09:59.909Z,71.40
2017-12-11T10:12:27.457Z,71.10
2017-12-11T10:14:54.989Z,70.80
2017-12-11T10:17:22.781Z,71.20
2017-12-11T10:19:50.305Z,71.20
2017-12-11T10:22:17.867Z,71.00
2017-12-11T10:24:45.464Z,70.70
2017-12-11T10:27:13.044Z,70.00
2017-12-11T10:29:40.609Z,69.50
2017-12-11T10:32:08.141Z,68.80
2017-12-11T10:34:35.723Z,69.00
2017-12-11T10:37:03.282Z,69.00
2017-12-11T10:39:30.797Z,69.10
2017-12-11T10:41:58.353Z,69.20
2017-12-11T10:44:25.909Z,69.70
2017-12-11T10:46:53.511Z,69.60
2017-12-11T10:49:21.078Z,69.30
2017-12-11T10:51:48.633Z,69.70
2017-12-11T10:59:23.377Z,69.50
2017-12-11T11:01:50.904Z,69.20
2017-12-11T11:04:18.437Z,69.00
2017-12-11T11:06:46.019Z,69.20
2017-12-11T11:09:13.632Z,65.90
2017-12-11T11:11:41.321Z,63.40
2017-12-11T11:14:08.896Z,65.80
2017-12-11T11:16:36.481Z,66.00
2017-12-11T11:19:04.032Z,66.20
2017-12-11T11:21:31.590Z,63.80
2017-12-11T11:23:59.201Z,63.30
2017-12-11T11:26:26.812Z,64.60
2017-12-11T11:28:54.344Z,64.40
2017-12-11T11:31:21.896Z,63.70
2017-12-11T11:33:49.489Z,62.70
2017-12-11T11:36:17.430Z,63.10
2017-12-11T11:38:45.097Z,63.60
2017-12-11T11:41:12.667Z,64.20
2017-12-11T11:43:40.976Z,65.00
2017-12-11T11:48:59.119Z,65.20
2017-12-11T11:51:27.361Z,65.60
2017-12-11T11:53:55.039Z,65.60
2017-12-11T11:56:22.616Z,66.30
2017-12-11T11:58:50.340Z,67.00
2017-12-11T12:01:17.943Z,66.90
2017-12-11T12:03:45.596Z,66.10
2017-12-11T12:06:13.967Z,67.00
2017-12-11T12:08:41.600Z,67.00
2017-12-11T12:11:09.172Z,67.10
2017-12-11T12:13:36.794Z,66.90
2017-12-11T12:16:04.395Z,66.70
2017-12-11T12:18:32.728Z,66.90
2017-12-11T12:21:00.255Z,66.90
2017-12-11T12:23:28.604Z,66.40
2017-12-11T12:25:56.171Z,66.40
2017-12-11T12:28:23.763Z,65.90
2017-12-11T12:30:51.360Z,65.00
2017-12-11T12:33:18.923Z,65.50
2017-12-11T12:35:46.476Z,65.60
2017-12-11T12:38:14.009Z,66.60
2017-12-11T12:40:41.599Z,66.30
2017-12-11T12:43:09.345Z,66.50
2017-12-11T12:45:37.761Z,67.10
2017-12-11T12:48:05.276Z,67.10
2017-12-11T12:50:32.802Z,67.10
2017-12-11T12:53:01.125Z,66.40
2017-12-11T12:55:28.655Z,66.30
2017-12-11T12:57:57.000Z,66.20
2017-12-11T13:00:24.541Z,66.10
2017-12-11T13:02:52.071Z,66.00
2017-12-11T13:05:19.663Z,65.90
2017-12-11T13:07:47.239Z,66.10
2017-12-11T13:10:14.761Z,65.60
2017-12-11T13:12:46.428Z,66.40
2017-12-11T13:15:14.120Z,66.60
2017-12-11T13:17:41.695Z,67.10
2017-12-11T13:20:09.310Z,66.90
2017-12-11T13:22:36.899Z,66.90
2017-12-11T13:25:04.433Z,66.70
2017-12-11T13:27:32.016Z,66.40
2017-12-11T13:29:59.687Z,66.20
2017-12-11T13:32:28.494Z,65.80
2017-12-11T13:34:56.125Z,64.10
2017-12-11T13:37:23.728Z,63.80
2017-12-11T13:39:51.360Z,63.80
2017-12-11T13:42:18.921Z,62.90
2017-12-11T13:44:47.233Z,64.40
2017-12-11T13:47:14.799Z,64.40
2017-12-11T13:49:42.354Z,65.40
2017-12-11T13:52:09.917Z,65.70
2017-12-11T13:54:37.472Z,65.90
2017-12-11T13:57:05.070Z,67.10
2017-12-11T13:59:32.625Z,66.50
2017-12-11T14:02:00.204Z,66.20
2017-12-11T14:04:27.751Z,65.80
2017-12-11T14:06:55.313Z,65.50
2017-12-11T14:09:23.052Z,65.20
2017-12-11T14:11:50.572Z,65.40
2017-12-11T14:14:18.889Z,65.30
2017-12-11T14:16:46.450Z,65.20
2017-12-11T14:19:13.974Z,65.40
2017-12-11T14:21:41.534Z,65.20
2017-12-11T14:24:09.055Z,65.20
2017-12-11T14:26:36.621Z,65.10
2017-12-11T14:29:04.168Z,65.30
2017-12-11T14:31:31.791Z,65.40
2017-12-11T14:33:59.325Z,65.60
2017-12-11T14:36:26.902Z,65.80
2017-12-11T14:38:54.721Z,66.40
2017-12-11T14:41:22.261Z,66.00
2017-12-11T14:43:49.972Z,66.80
2017-12-11T14:46:18.296Z,66.40
2017-12-11T14:48:46.056Z,66.40
2017-12-11T14:51:13.589Z,66.80
2017-12-11T14:53:41.121Z,67.10
2017-12-11T14:56:08.720Z,67.60
2017-12-11T14:58:36.342Z,67.60
2017-12-11T15:01:03.941Z,67.60
2017-12-11T15:03:31.491Z,67.70
2017-12-11T15:05:59.041Z,67.80
2017-12-11T15:08:26.589Z,67.90
2017-12-11T15:10:54.207Z,68.00
2017-12-11T15:13:21.735Z,67.90
2017-12-11T15:15:49.302Z,68.20
2017-12-11T15:18:16.841Z,68.10
2017-12-11T15:20:45.166Z,68.00
2017-12-11T15:23:12.709Z,68.00
2017-12-11T15:25:40.252Z,68.00
2017-12-11T15:28:07.824Z,68.00
2017-12-11T15:30:35.561Z,67.70
2017-12-11T15:33:03.125Z,67.10
2017-12-11T15:35:30.703Z,66.10
2017-12-11T15:37:58.267Z,65.60
2017-12-11T15:40:30.910Z,64.80
2017-12-11T15:42:58.510Z,64.90
2017-12-11T15:45:26.077Z,64.70
2017-12-11T15:47:53.660Z,65.10
2017-12-11T15:50:21.234Z,65.00
2017-12-11T15:52:48.800Z,64.80
2017-12-11T15:55:16.434Z,65.20
2017-12-11T15:57:44.058Z,65.10
2017-12-11T16:00:12.215Z,65.60
2017-12-11T16:02:40.601Z,65.50
2017-12-11T16:05:08.212Z,65.50
2017-12-11T16:07:35.802Z,65.60
2017-12-11T16:10:04.159Z,66.30
2017-12-11T16:12:31.689Z,66.20
2017-12-11T16:14:59.260Z,66.20
2017-12-11T16:17:26.842Z,66.20
2017-12-11T16:19:54.371Z,66.30
2017-12-11T16:22:21.928Z,66.50
2017-12-11T16:24:49.452Z,66.40
2017-12-11T16:27:17.012Z,66.50
2017-12-11T16:29:45.312Z,67.00
2017-12-11T16:32:12.877Z,66.60
2017-12-11T16:34:40.587Z,66.90
2017-12-11T16:37:08.114Z,67.30
2017-12-11T16:39:35.715Z,67.30
2017-12-11T16:42:03.280Z,67.10
2017-12-11T16:44:31.600Z,67.50
2017-12-11T16:46:59.169Z,67.40
2017-12-11T16:49:26.757Z,67.40
2017-12-11T16:51:54.314Z,67.50
2017-12-11T16:54:21.877Z,67.50
2017-12-11T16:56:49.409Z,67.40
2017-12-11T16:59:16.962Z,67.40
2017-12-11T17:01:44.476Z,67.60
2017-12-11T17:04:12.048Z,67.30
2017-12-11T17:06:39.701Z,67.50
2017-12-11T17:09:08.101Z,67.80
2017-12-11T17:11:35.620Z,67.80
2017-12-11T17:14:03.193Z,68.00
2017-12-11T17:16:30.808Z,67.80
2017-12-11T17:18:58.355Z,67.90
2017-12-11T17:21:25.957Z,67.90
2017-12-11T17:23:53.512Z,68.30
2017-12-11T17:26:21.113Z,68.10
2017-12-11T17:28:48.653Z,68.20
2017-12-11T17:31:17.031Z,68.20
2017-12-11T17:33:45.411Z,68.10
2017-12-11T17:36:12.936Z,68.10
2017-12-11T17:38:40.590Z,69.00
2017-12-11T17:41:08.156Z,68.30
2017-12-11T17:43:36.446Z,68.80
2017-12-11T17:46:04.232Z,68.70
2017-12-11T17:48:31.759Z,68.90
2017-12-11T17:50:59.319Z,69.00
2017-12-11T17:53:27.360Z,69.00
2017-12-11T17:55:54.937Z,69.00
2017-12-11T17:58:22.476Z,69.10
2017-12-11T18:00:50.035Z,69.10
2017-12-11T18:03:17.596Z,69.10
2017-12-11T18:05:45.197Z,68.90
2017-12-11T18:08:12.817Z,68.40
2017-12-11T18:10:40.380Z,68.20
2017-12-11T18:13:07.928Z,67.90
2017-12-11T18:15:35.444Z,67.30
2017-12-11T18:18:03.029Z,66.70
2017-12-11T18:20:30.647Z,66.30
2017-12-11T18:22:58.174Z,66.30
2017-12-11T18:25:25.771Z,65.90
2017-12-11T18:27:53.293Z,66.00
2017-12-11T18:30:20.853Z,65.90
2017-12-11T18:32:48.392Z,66.10
2017-12-11T18:35:16.734Z,65.20
2017-12-11T18:37:44.292Z,65.20
2017-12-11T18:40:11.834Z,65.30
2017-12-11T18:42:39.413Z,65.20
2017-12-11T18:45:07.019Z,65.20
2017-12-11T18:47:34.550Z,65.20
2017-12-11T18:50:02.092Z,65.00
2017-12-11T18:52:29.621Z,64.50
2017-12-11T18:54:57.249Z,64.20
2017-12-11T18:57:24.822Z,64.20
2017-12-11T18:59:52.393Z,64.30
2017-12-11T19:02:20.036Z,64.60
2017-12-11T19:04:47.601Z,64.30
2017-12-11T19:07:15.181Z,64.00
2017-12-11T19:09:42.736Z,64.10
2017-12-11T19:12:10.329Z,63.40
2017-12-11T19:14:37.857Z,63.50
2017-12-11T19:17:05.417Z,63.70
2017-12-11T19:19:32.972Z,63.80
2017-12-11T19:22:00.588Z,64.20
2017-12-11T19:24:28.188Z,63.90
2017-12-11T19:26:55.705Z,63.40
2017-12-11T19:29:23.303Z,63.70
2017-12-11T19:31:50.837Z,63.60
2017-12-11T19:34:18.411Z,63.90
2017-12-11T19:36:46.040Z,64.00
2017-12-11T19:39:13.653Z,64.00
2017-12-11T19:41:41.221Z,63.20
2017-12-11T19:44:08.785Z,63.00
2017-12-11T19:46:36.339Z,62.80
2017-12-11T19:49:03.882Z,62.20
2017-12-11T19:51:31.464Z,61.80
2017-12-11T19:53:59.019Z,62.30
2017-12-11T19:56:26.584Z,62.20
2017-12-11T19:58:54.126Z,62.50
2017-12-11T20:01:21.685Z,62.70
2017-12-11T20:03:49.260Z,62.60
2017-12-11T20:06:16.782Z,63.00
2017-12-11T20:08:44.376Z,62.80
2017-12-11T20:11:11.927Z,62.90
2017-12-11T20:13:39.512Z,62.80
2017-12-11T20:16:07.073Z,62.40
2017-12-11T20:18:34.600Z,62.00
2017-12-11T20:21:02.156Z,61.60
2017-12-11T20:23:29.716Z,61.90
2017-12-11T20:25:57.247Z,61.40
2017-12-11T20:28:24.775Z,61.40
2017-12-11T20:30:52.327Z,61.30
2017-12-11T20:33:19.849Z,61.50
2017-12-11T20:35:47.399Z,62.10
2017-12-11T20:38:15.697Z,62.00
2017-12-11T20:40:43.260Z,62.00
2017-12-11T20:43:10.790Z,62.40
2017-12-11T20:45:39.185Z,62.30
2017-12-11T20:48:06.748Z,62.80
2017-12-11T20:50:34.296Z,61.30
2017-12-11T20:53:02.628Z,60.70
2017-12-11T20:55:30.187Z,60.60
2017-12-11T20:57:58.115Z,61.30
2017-12-11T21:00:25.757Z,61.80
2017-12-11T21:02:53.318Z,61.30
2017-12-11T21:05:20.878Z,61.50
2017-12-11T21:07:49.174Z,61.10
2017-12-11T21:10:16.737Z,61.10
2017-12-11T21:12:44.269Z,61.80
2017-12-11T21:15:11.993Z,61.50
2017-12-11T21:17:39.516Z,61.00
2017-12-11T21:20:07.053Z,61.00
2017-12-11T21:22:34.607Z,61.30
2017-12-11T21:25:02.121Z,61.20
2017-12-11T21:27:29.708Z,61.10
2017-12-11T21:29:57.269Z,61.40
2017-12-11T21:32:24.876Z,59.80
2017-12-11T21:34:52.511Z,58.70
2017-12-11T21:37:20.799Z,57.90
2017-12-11T21:39:48.418Z,57.70
2017-12-11T21:42:15.972Z,57.50
2017-12-11T21:44:43.814Z,59.10
2017-12-11T21:47:11.345Z,58.20
2017-12-11T21:49:39.632Z,58.60
2017-12-11T21:52:07.184Z,58.10
2017-12-11T21:54:35.473Z,58.00
2017-12-11T21:57:03.009Z,58.00
2017-12-11T21:59:31.344Z,57.90
2017-12-11T22:01:58.918Z,57.80
2017-12-11T22:04:26.449Z,57.60
2017-12-11T22:06:54.017Z,57.40
2017-12-11T22:09:21.545Z,57.40
2017-12-11T22:11:49.131Z,57.60
2017-12-11T22:14:16.723Z,57.00
2017-12-11T22:16:44.284Z,56.80
2017-12-11T22:19:11.809Z,56.90
2017-12-11T22:21:39.386Z,57.40
2017-12-11T22:24:06.932Z,57.60
2017-12-11T22:26:34.497Z,57.50
2017-12-11T22:29:02.063Z,57.20
2017-12-11T22:31:29.586Z,56.70
2017-12-11T22:33:57.146Z,56.40
2017-12-11T22:36:24.685Z,56.70
2017-12-11T22:38:52.272Z,56.30
2017-12-11T22:41:19.837Z,56.50
2017-12-11T22:43:47.364Z,55.90
2017-12-11T22:46:14.965Z,56.90
2017-12-11T22:48:42.518Z,55.00
2017-12-11T22:51:10.096Z,55.10
2017-12-11T22:53:37.668Z,55.20
2017-12-11T22:56:05.232Z,55.50
2017-12-11T22:58:32.791Z,55.70
2017-12-11T23:01:00.360Z,55.20
2017-12-11T23:03:27.904Z,55.10
2017-12-11T23:05:55.475Z,55.10
2017-12-11T23:08:23.001Z,55.40
2017-12-11T23:10:50.540Z,54.90
2017-12-11T23:13:18.112Z,55.00
2017-12-11T23:15:45.728Z,54.50
2017-12-11T23:18:13.265Z,54.80
2017-12-11T23:20:41.148Z,54.60
2017-12-11T23:23:08.721Z,54.90
2017-12-11T23:25:36.293Z,55.10
2017-12-11T23:28:03.823Z,54.80
2017-12-11T23:30:31.392Z,54.90
2017-12-11T23:32:58.932Z,55.00
2017-12-11T23:35:26.452Z,55.30
2017-12-11T23:37:54.088Z,55.30
2017-12-11T23:40:21.614Z,55.30
2017-12-11T23:42:49.158Z,55.00
2017-12-11T23:45:16.722Z,55.10
2017-12-11T23:47:44.360Z,54.80
2017-12-11T23:50:11.884Z,55.10
2017-12-11T23:52:40.269Z,55.20
2017-12-11T23:55:07.778Z,55.20
2017-12-11T23:57:35.324Z,55.20
